sensor_id;sensor_type;location;lat;lon;timestamp;pressure;altitude;pressure_sealevel;temperature;humidity
30021;BME280;16861;52.294;7.760;2023-04-22T00:02:20;99167.50;;;15.91;58.99
30021;BME280;16861;52.294;7.760;2023-04-22T00:04:48;99144.44;;;15.92;59.12
30021;BME280;16861;52.294;7.760;2023-04-22T00:07:15;99132.84;;;15.93;58.98
30021;BME280;16861;52.294;7.760;2023-04-22T00:09:42;99131.78;;;15.95;58.84
30021;BME280;16861;52.294;7.760;2023-04-22T00:12:09;99147.56;;;15.97;58.92
30021;BME280;16861;52.294;7.760;2023-04-22T00:14:38;99149.38;;;15.96;58.75
30021;BME280;16861;52.294;7.760;2023-04-22T00:17:05;99149.38;;;15.96;58.34
30021;BME280;16861;52.294;7.760;2023-04-22T00:19:32;99152.16;;;15.95;58.55
30021;BME280;16861;52.294;7.760;2023-04-22T00:22:00;99145.28;;;15.92;58.41
30021;BME280;16861;52.294;7.760;2023-04-22T00:24:26;99148.22;;;15.89;58.45
30021;BME280;16861;52.294;7.760;2023-04-22T00:26:53;99142.19;;;15.87;58.38
30021;BME280;16861;52.294;7.760;2023-04-22T00:29:20;99132.97;;;15.81;58.51
30021;BME280;16861;52.294;7.760;2023-04-22T00:31:46;99135.06;;;15.77;58.63
30021;BME280;16861;52.294;7.760;2023-04-22T00:34:14;99146.94;;;15.73;58.94
30021;BME280;16861;52.294;7.760;2023-04-22T00:36:43;99149.84;;;15.70;59.27
30021;BME280;16861;52.294;7.760;2023-04-22T00:39:09;99145.66;;;15.68;59.28
30021;BME280;16861;52.294;7.760;2023-04-22T00:41:38;99151.09;;;15.66;59.44
30021;BME280;16861;52.294;7.760;2023-04-22T00:44:08;99161.81;;;15.64;59.33
30021;BME280;16861;52.294;7.760;2023-04-22T00:46:36;99153.03;;;15.64;59.54
30021;BME280;16861;52.294;7.760;2023-04-22T00:49:05;99159.16;;;15.64;59.65
30021;BME280;16861;52.294;7.760;2023-04-22T00:51:32;99156.38;;;15.66;59.56
30021;BME280;16861;52.294;7.760;2023-04-22T00:53:59;99144.97;;;15.66;59.66
30021;BME280;16861;52.294;7.760;2023-04-22T00:56:27;99148.44;;;15.66;59.73
30021;BME280;16861;52.294;7.760;2023-04-22T00:58:55;99158.09;;;15.67;59.75
30021;BME280;16861;52.294;7.760;2023-04-22T01:01:22;99155.44;;;15.67;59.49
30021;BME280;16861;52.294;7.760;2023-04-22T01:03:49;99152.78;;;15.67;59.39
30021;BME280;16861;52.294;7.760;2023-04-22T01:06:18;99149.41;;;15.65;59.06
30021;BME280;16861;52.294;7.760;2023-04-22T01:08:48;99139.78;;;15.64;59.22
30021;BME280;16861;52.294;7.760;2023-04-22T01:11:15;99138.94;;;15.63;59.05
30021;BME280;16861;52.294;7.760;2023-04-22T01:13:41;99133.91;;;15.60;59.07
30021;BME280;16861;52.294;7.760;2023-04-22T01:16:08;99126.34;;;15.56;58.83
30021;BME280;16861;52.294;7.760;2023-04-22T01:18:35;99130.25;;;15.52;58.77
30021;BME280;16861;52.294;7.760;2023-04-22T01:21:02;99118.22;;;15.47;58.91
30021;BME280;16861;52.294;7.760;2023-04-22T01:23:29;99114.44;;;15.40;58.99
30021;BME280;16861;52.294;7.760;2023-04-22T01:25:56;99128.94;;;15.36;59.24
30021;BME280;16861;52.294;7.760;2023-04-22T01:28:23;99124.03;;;15.31;59.21
30021;BME280;16861;52.294;7.760;2023-04-22T01:30:50;99110.34;;;15.26;59.37
30021;BME280;16861;52.294;7.760;2023-04-22T01:33:17;99118.56;;;15.23;59.46
30021;BME280;16861;52.294;7.760;2023-04-22T01:35:44;99117.16;;;15.19;59.32
30021;BME280;16861;52.294;7.760;2023-04-22T01:38:11;99116.59;;;15.15;59.71
30021;BME280;16861;52.294;7.760;2023-04-22T01:40:38;99128.44;;;15.11;59.75
30021;BME280;16861;52.294;7.760;2023-04-22T01:43:05;99112.91;;;15.06;59.56
30021;BME280;16861;52.294;7.760;2023-04-22T01:45:31;99117.66;;;15.03;59.89
30021;BME280;16861;52.294;7.760;2023-04-22T01:47:58;99117.91;;;15.00;59.68
30021;BME280;16861;52.294;7.760;2023-04-22T01:50:25;99116.50;;;14.95;59.83
30021;BME280;16861;52.294;7.760;2023-04-22T01:52:51;99119.41;;;14.92;59.83
30021;BME280;16861;52.294;7.760;2023-04-22T01:55:18;99115.31;;;14.88;59.75
30021;BME280;16861;52.294;7.760;2023-04-22T01:57:45;99119.94;;;14.86;59.63
30021;BME280;16861;52.294;7.760;2023-04-22T02:00:12;99107.91;;;14.82;59.27
30021;BME280;16861;52.294;7.760;2023-04-22T02:02:39;99106.38;;;14.79;59.35
30021;BME280;16861;52.294;7.760;2023-04-22T02:05:06;99113.59;;;14.77;59.36
30021;BME280;16861;52.294;7.760;2023-04-22T02:07:33;99108.53;;;14.74;59.33
30021;BME280;16861;52.294;7.760;2023-04-22T02:10:05;99113.25;;;14.70;58.98
30021;BME280;16861;52.294;7.760;2023-04-22T02:12:32;99108.09;;;14.69;58.92
30021;BME280;16861;52.294;7.760;2023-04-22T02:14:58;99111.00;;;14.66;58.98
30021;BME280;16861;52.294;7.760;2023-04-22T02:17:25;99114.63;;;14.65;58.85
30021;BME280;16861;52.294;7.760;2023-04-22T02:19:52;99112.94;;;14.64;58.92
30021;BME280;16861;52.294;7.760;2023-04-22T02:22:20;99122.81;;;14.62;58.97
30021;BME280;16861;52.294;7.760;2023-04-22T02:24:47;99112.22;;;14.62;59.08
30021;BME280;16861;52.294;7.760;2023-04-22T02:27:14;99110.44;;;14.62;58.87
30021;BME280;16861;52.294;7.760;2023-04-22T02:29:40;99108.72;;;14.61;58.84
30021;BME280;16861;52.294;7.760;2023-04-22T02:32:07;99112.09;;;14.63;58.61
30021;BME280;16861;52.294;7.760;2023-04-22T02:34:34;99112.94;;;14.64;58.40
30021;BME280;16861;52.294;7.760;2023-04-22T02:37:01;99105.72;;;14.66;58.26
30021;BME280;16861;52.294;7.760;2023-04-22T02:39:28;99107.38;;;14.67;58.40
30021;BME280;16861;52.294;7.760;2023-04-22T02:41:55;99102.94;;;14.67;58.09
30021;BME280;16861;52.294;7.760;2023-04-22T02:44:21;99110.75;;;14.69;58.16
30021;BME280;16861;52.294;7.760;2023-04-22T02:46:48;99107.13;;;14.70;57.84
30021;BME280;16861;52.294;7.760;2023-04-22T02:49:15;99102.66;;;14.70;57.83
30021;BME280;16861;52.294;7.760;2023-04-22T02:51:41;99101.69;;;14.71;57.84
30021;BME280;16861;52.294;7.760;2023-04-22T02:54:08;99104.34;;;14.71;57.66
30021;BME280;16861;52.294;7.760;2023-04-22T02:56:34;99099.88;;;14.72;57.80
30021;BME280;16861;52.294;7.760;2023-04-22T02:59:01;99102.41;;;14.73;57.67
30021;BME280;16861;52.294;7.760;2023-04-22T03:01:28;99097.94;;;14.74;57.56
30021;BME280;16861;52.294;7.760;2023-04-22T03:03:55;99096.13;;;14.75;57.51
30021;BME280;16861;52.294;7.760;2023-04-22T03:06:22;99096.88;;;14.77;57.50
30021;BME280;16861;52.294;7.760;2023-04-22T03:08:48;99100.34;;;14.77;57.24
30021;BME280;16861;52.294;7.760;2023-04-22T03:11:15;99092.41;;;14.77;57.34
30021;BME280;16861;52.294;7.760;2023-04-22T03:13:42;99094.09;;;14.78;57.17
30021;BME280;16861;52.294;7.760;2023-04-22T03:16:08;99093.13;;;14.79;57.08
30021;BME280;16861;52.294;7.760;2023-04-22T03:18:35;99095.78;;;14.79;57.19
30021;BME280;16861;52.294;7.760;2023-04-22T03:21:01;99095.78;;;14.79;57.06
30021;BME280;16861;52.294;7.760;2023-04-22T03:23:27;99097.56;;;14.79;56.86
30021;BME280;16861;52.294;7.760;2023-04-22T03:25:54;99090.34;;;14.81;57.10
30021;BME280;16861;52.294;7.760;2023-04-22T03:28:20;99090.47;;;14.79;56.88
30021;BME280;16861;52.294;7.760;2023-04-22T03:30:46;99092.03;;;14.82;56.84
30021;BME280;16861;52.294;7.760;2023-04-22T03:33:13;99093.81;;;14.81;56.69
30021;BME280;16861;52.294;7.760;2023-04-22T03:35:40;99094.66;;;14.82;56.89
30021;BME280;16861;52.294;7.760;2023-04-22T03:38:06;99082.41;;;14.81;57.06
30021;BME280;16861;52.294;7.760;2023-04-22T03:40:33;99087.69;;;14.81;56.89
30021;BME280;16861;52.294;7.760;2023-04-22T03:42:59;99077.09;;;14.81;56.76
30021;BME280;16861;52.294;7.760;2023-04-22T03:45:26;99077.91;;;14.81;56.67
30021;BME280;16861;52.294;7.760;2023-04-22T03:47:52;99076.13;;;14.82;56.52
30021;BME280;16861;52.294;7.760;2023-04-22T03:50:19;99078.78;;;14.82;56.59
30021;BME280;16861;52.294;7.760;2023-04-22T03:52:45;99075.28;;;14.81;56.70
30021;BME280;16861;52.294;7.760;2023-04-22T03:55:11;99078.78;;;14.82;56.37
30021;BME280;16861;52.294;7.760;2023-04-22T03:57:38;99074.31;;;14.82;56.68
30021;BME280;16861;52.294;7.760;2023-04-22T04:00:04;99073.47;;;14.82;56.52
30021;BME280;16861;52.294;7.760;2023-04-22T04:02:31;99073.47;;;14.82;56.54
30021;BME280;16861;52.294;7.760;2023-04-22T04:04:58;99080.44;;;14.83;56.66
30021;BME280;16861;52.294;7.760;2023-04-22T04:07:24;99070.81;;;14.82;56.63
30021;BME280;16861;52.294;7.760;2023-04-22T04:09:51;99069.84;;;14.83;56.49
30021;BME280;16861;52.294;7.760;2023-04-22T04:12:17;99068.19;;;14.82;56.40
30021;BME280;16861;52.294;7.760;2023-04-22T04:14:43;99073.47;;;14.82;56.52
30021;BME280;16861;52.294;7.760;2023-04-22T04:17:10;99067.19;;;14.83;56.57
30021;BME280;16861;52.294;7.760;2023-04-22T04:19:39;99075.16;;;14.83;56.60
30021;BME280;16861;52.294;7.760;2023-04-22T04:22:06;99078.78;;;14.82;56.53
30021;BME280;16861;52.294;7.760;2023-04-22T04:24:32;99079.63;;;14.82;56.40
30021;BME280;16861;52.294;7.760;2023-04-22T04:26:58;99076.13;;;14.82;56.25
30021;BME280;16861;52.294;7.760;2023-04-22T04:29:25;99073.47;;;14.82;56.33
30021;BME280;16861;52.294;7.760;2023-04-22T04:31:52;99072.50;;;14.83;56.25
30021;BME280;16861;52.294;7.760;2023-04-22T04:34:18;99064.53;;;14.83;56.39
30021;BME280;16861;52.294;7.760;2023-04-22T04:36:44;99069.84;;;14.83;56.47
30021;BME280;16861;52.294;7.760;2023-04-22T04:39:11;99065.41;;;14.83;56.42
30021;BME280;16861;52.294;7.760;2023-04-22T04:41:38;99066.25;;;14.84;56.45
30021;BME280;16861;52.294;7.760;2023-04-22T04:44:04;99059.13;;;14.84;56.67
30021;BME280;16861;52.294;7.760;2023-04-22T04:46:31;99073.22;;;14.85;56.48
30021;BME280;16861;52.294;7.760;2023-04-22T04:48:59;99062.63;;;14.85;56.94
30021;BME280;16861;52.294;7.760;2023-04-22T04:51:26;99059.00;;;14.86;56.90
30021;BME280;16861;52.294;7.760;2023-04-22T04:53:53;99067.63;;;14.88;56.73
30021;BME280;16861;52.294;7.760;2023-04-22T04:56:19;99060.53;;;14.89;56.79
30021;BME280;16861;52.294;7.760;2023-04-22T04:58:46;99056.09;;;14.89;56.93
30021;BME280;16861;52.294;7.760;2023-04-22T05:01:12;99055.22;;;14.89;56.80
30021;BME280;16861;52.294;7.760;2023-04-22T05:03:38;99063.91;;;14.91;56.82
30021;BME280;16861;52.294;7.760;2023-04-22T05:06:05;99064.72;;;14.91;56.78
30021;BME280;16861;52.294;7.760;2023-04-22T05:08:32;99060.97;;;14.94;56.86
30021;BME280;16861;52.294;7.760;2023-04-22T05:10:58;99062.66;;;14.95;57.02
30021;BME280;16861;52.294;7.760;2023-04-22T05:13:25;99063.38;;;14.97;56.96
30021;BME280;16861;52.294;7.760;2023-04-22T05:15:52;99060.59;;;14.98;57.02
30021;BME280;16861;52.294;7.760;2023-04-22T05:18:19;99063.91;;;15.01;57.23
30021;BME280;16861;52.294;7.760;2023-04-22T05:20:45;99054.03;;;15.03;57.26
30021;BME280;16861;52.294;7.760;2023-04-22T05:23:12;99069.69;;;15.06;57.05
30021;BME280;16861;52.294;7.760;2023-04-22T05:25:38;99066.63;;;15.10;57.08
30021;BME280;16861;52.294;7.760;2023-04-22T05:28:05;99063.00;;;15.11;57.23
30021;BME280;16861;52.294;7.760;2023-04-22T05:30:31;99059.22;;;15.14;57.18
30021;BME280;16861;52.294;7.760;2023-04-22T05:32:58;99068.59;;;15.18;57.13
30021;BME280;16861;52.294;7.760;2023-04-22T05:35:24;99061.34;;;15.20;57.17
30021;BME280;16861;52.294;7.760;2023-04-22T05:37:50;99064.69;;;15.22;57.00
30021;BME280;16861;52.294;7.760;2023-04-22T05:40:17;99063.59;;;15.25;57.08
30021;BME280;16861;52.294;7.760;2023-04-22T05:42:43;99069.59;;;15.27;56.77
30021;BME280;16861;52.294;7.760;2023-04-22T05:45:10;99067.50;;;15.31;56.86
30021;BME280;16861;52.294;7.760;2023-04-22T05:47:36;99074.22;;;15.35;56.86
30021;BME280;16861;52.294;7.760;2023-04-22T05:50:03;99064.34;;;15.37;57.00
30021;BME280;16861;52.294;7.760;2023-04-22T05:52:30;99062.25;;;15.41;56.88
30021;BME280;16861;52.294;7.760;2023-04-22T05:54:56;99061.97;;;15.44;56.89
30021;BME280;16861;52.294;7.760;2023-04-22T05:57:22;99064.50;;;15.45;56.90
30021;BME280;16861;52.294;7.760;2023-04-22T05:59:49;99065.19;;;15.47;56.83
30021;BME280;16861;52.294;7.760;2023-04-22T06:02:16;99071.91;;;15.52;56.82
30021;BME280;16861;52.294;7.760;2023-04-22T06:04:43;99074.28;;;15.55;57.16
30021;BME280;16861;52.294;7.760;2023-04-22T06:07:09;99070.38;;;15.59;57.05
30021;BME280;16861;52.294;7.760;2023-04-22T06:09:36;99062.13;;;15.62;57.44
30021;BME280;16861;52.294;7.760;2023-04-22T06:12:02;99062.59;;;15.67;57.14
30021;BME280;16861;52.294;7.760;2023-04-22T06:14:29;99061.34;;;15.71;57.18
30021;BME280;16861;52.294;7.760;2023-04-22T06:16:55;99055.72;;;15.74;57.31
30021;BME280;16861;52.294;7.760;2023-04-22T06:19:21;99059.50;;;15.82;56.74
30021;BME280;16861;52.294;7.760;2023-04-22T06:21:48;99049.44;;;15.85;57.05
30021;BME280;16861;52.294;7.760;2023-04-22T06:24:14;99054.34;;;15.90;56.97
30021;BME280;16861;52.294;7.760;2023-04-22T06:26:40;99053.13;;;15.94;56.76
30021;BME280;16861;52.294;7.760;2023-04-22T06:29:07;99053.53;;;15.99;56.78
30021;BME280;16861;52.294;7.760;2023-04-22T06:31:36;99053.13;;;16.04;56.53
30021;BME280;16861;52.294;7.760;2023-04-22T06:34:02;99051.72;;;16.10;56.60
30021;BME280;16861;52.294;7.760;2023-04-22T06:36:30;99053.81;;;16.16;56.94
30021;BME280;16861;52.294;7.760;2023-04-22T06:38:58;99047.09;;;16.22;57.00
30021;BME280;16861;52.294;7.760;2023-04-22T06:41:24;99052.69;;;16.28;56.86
30021;BME280;16861;52.294;7.760;2023-04-22T06:43:51;99035.50;;;16.33;57.25
30021;BME280;16861;52.294;7.760;2023-04-22T06:46:17;99038.53;;;16.38;56.87
30021;BME280;16861;52.294;7.760;2023-04-22T06:48:44;99043.28;;;16.44;56.95
30021;BME280;16861;52.294;7.760;2023-04-22T06:51:11;99047.19;;;16.50;56.95
30021;BME280;16861;52.294;7.760;2023-04-22T06:53:37;99044.09;;;16.54;56.61
30021;BME280;16861;52.294;7.760;2023-04-22T06:56:04;99047.16;;;16.60;56.57
30021;BME280;16861;52.294;7.760;2023-04-22T06:58:31;99043.91;;;16.66;56.30
30021;BME280;16861;52.294;7.760;2023-04-22T07:00:57;99040.84;;;16.71;56.22
30021;BME280;16861;52.294;7.760;2023-04-22T07:03:24;99045.56;;;16.77;56.16
30021;BME280;16861;52.294;7.760;2023-04-22T07:05:51;99034.50;;;16.82;55.80
30021;BME280;16861;52.294;7.760;2023-04-22T07:08:17;99040.06;;;16.88;55.58
30021;BME280;16861;52.294;7.760;2023-04-22T07:10:44;99038.66;;;16.94;55.30
30021;BME280;16861;52.294;7.760;2023-04-22T07:13:11;99031.88;;;17.00;55.14
30021;BME280;16861;52.294;7.760;2023-04-22T07:15:37;99040.16;;;17.06;55.42
30021;BME280;16861;52.294;7.760;2023-04-22T07:18:04;99048.22;;;17.15;55.55
30021;BME280;16861;52.294;7.760;2023-04-22T07:20:30;99045.00;;;17.21;55.48
30021;BME280;16861;52.294;7.760;2023-04-22T07:22:56;99045.09;;;17.29;55.45
30021;BME280;16861;52.294;7.760;2023-04-22T07:25:23;99048.81;;;17.37;54.93
30021;BME280;16861;52.294;7.760;2023-04-22T07:27:49;99046.22;;;17.45;55.22
30021;BME280;16861;52.294;7.760;2023-04-22T07:30:16;99041.00;;;17.53;55.14
30021;BME280;16861;52.294;7.760;2023-04-22T07:32:42;99047.25;;;17.62;55.20
30021;BME280;16861;52.294;7.760;2023-04-22T07:35:08;99045.50;;;17.71;54.79
30021;BME280;16861;52.294;7.760;2023-04-22T07:37:35;99044.44;;;17.82;55.17
30021;BME280;16861;52.294;7.760;2023-04-22T07:40:01;99047.03;;;17.92;55.06
30021;BME280;16861;52.294;7.760;2023-04-22T07:42:28;99046.81;;;18.03;54.81
30021;BME280;16861;52.294;7.760;2023-04-22T07:44:54;99039.59;;;18.14;54.56
30021;BME280;16861;52.294;7.760;2023-04-22T07:47:20;99039.50;;;18.23;54.24
30021;BME280;16861;52.294;7.760;2023-04-22T07:49:47;99036.75;;;18.33;53.90
30021;BME280;16861;52.294;7.760;2023-04-22T07:52:14;99036.47;;;18.45;53.64
30021;BME280;16861;52.294;7.760;2023-04-22T07:54:40;99037.53;;;18.52;53.31
30021;BME280;16861;52.294;7.760;2023-04-22T07:57:07;99035.22;;;18.57;53.50
30021;BME280;16861;52.294;7.760;2023-04-22T07:59:33;99036.28;;;18.65;52.70
30021;BME280;16861;52.294;7.760;2023-04-22T08:01:59;99033.97;;;18.70;53.05
30021;BME280;16861;52.294;7.760;2023-04-22T08:04:26;99033.50;;;18.74;52.39
30021;BME280;16861;52.294;7.760;2023-04-22T08:06:52;99039.34;;;18.78;52.27
30021;BME280;16861;52.294;7.760;2023-04-22T08:09:20;99029.34;;;18.80;52.55
30021;BME280;16861;52.294;7.760;2023-04-22T08:11:46;99038.84;;;18.83;52.04
30021;BME280;16861;52.294;7.760;2023-04-22T08:14:12;99037.03;;;18.83;51.65
30021;BME280;16861;52.294;7.760;2023-04-22T08:16:41;99041.34;;;18.84;51.50
30021;BME280;16861;52.294;7.760;2023-04-22T08:19:07;99042.88;;;18.87;51.89
30021;BME280;16861;52.294;7.760;2023-04-22T08:21:34;99046.38;;;18.87;51.30
30021;BME280;16861;52.294;7.760;2023-04-22T08:24:02;99040.03;;;18.88;52.08
30021;BME280;16861;52.294;7.760;2023-04-22T08:26:29;99038.88;;;18.91;52.09
30021;BME280;16861;52.294;7.760;2023-04-22T08:28:55;99038.56;;;18.94;52.19
30021;BME280;16861;52.294;7.760;2023-04-22T08:31:21;99036.41;;;18.98;52.15
30021;BME280;16861;52.294;7.760;2023-04-22T08:33:48;99039.47;;;19.03;52.06
30021;BME280;16861;52.294;7.760;2023-04-22T08:36:15;99035.16;;;19.10;51.49
30021;BME280;16861;52.294;7.760;2023-04-22T08:38:42;99040.69;;;19.17;52.06
30021;BME280;16861;52.294;7.760;2023-04-22T08:41:08;99034.88;;;19.22;51.92
30021;BME280;16861;52.294;7.760;2023-04-22T08:43:35;99039.25;;;19.31;51.94
30021;BME280;16861;52.294;7.760;2023-04-22T08:46:01;99034.09;;;19.38;51.63
30021;BME280;16861;52.294;7.760;2023-04-22T08:48:28;99034.97;;;19.47;51.16
30021;BME280;16861;52.294;7.760;2023-04-22T08:50:55;99026.13;;;19.55;50.29
30021;BME280;16861;52.294;7.760;2023-04-22T08:53:22;99030.78;;;19.61;50.14
30021;BME280;16861;52.294;7.760;2023-04-22T08:55:50;99018.63;;;19.66;50.25
30021;BME280;16861;52.294;7.760;2023-04-22T08:58:16;99010.13;;;19.71;50.75
30021;BME280;16861;52.294;7.760;2023-04-22T09:00:43;99008.44;;;19.78;50.31
30021;BME280;16861;52.294;7.760;2023-04-22T09:03:10;99004.97;;;19.86;50.19
30021;BME280;16861;52.294;7.760;2023-04-22T09:05:38;99001.63;;;19.92;50.13
30021;BME280;16861;52.294;7.760;2023-04-22T09:08:06;99005.16;;;20.01;49.82
30021;BME280;16861;52.294;7.760;2023-04-22T09:10:37;98992.94;;;20.07;48.71
30021;BME280;16861;52.294;7.760;2023-04-22T09:13:05;98996.47;;;20.16;49.36
30021;BME280;16861;52.294;7.760;2023-04-22T09:15:32;98995.44;;;20.25;49.48
30021;BME280;16861;52.294;7.760;2023-04-22T09:17:58;98986.41;;;20.35;49.66
30021;BME280;16861;52.294;7.760;2023-04-22T09:20:28;98977.03;;;20.47;49.59
30021;BME280;16861;52.294;7.760;2023-04-22T09:22:56;98985.50;;;20.59;49.35
30021;BME280;16861;52.294;7.760;2023-04-22T09:25:25;98971.78;;;20.70;49.14
30021;BME280;16861;52.294;7.760;2023-04-22T09:27:56;98978.41;;;20.83;47.92
30021;BME280;16861;52.294;7.760;2023-04-22T09:30:25;98972.34;;;20.98;48.74
30021;BME280;16861;52.294;7.760;2023-04-22T09:32:56;98986.16;;;21.09;47.71
30021;BME280;16861;52.294;7.760;2023-04-22T09:35:30;98988.63;;;21.19;47.31
30021;BME280;16861;52.294;7.760;2023-04-22T09:38:00;98983.69;;;21.31;47.80
30021;BME280;16861;52.294;7.760;2023-04-22T09:40:28;98977.31;;;21.41;47.71
30021;BME280;16861;52.294;7.760;2023-04-22T09:42:57;98985.94;;;21.51;48.37
30021;BME280;16861;52.294;7.760;2023-04-22T09:45:38;98980.50;;;21.59;48.17
30021;BME280;16861;52.294;7.760;2023-04-22T09:50:42;98981.84;;;21.87;46.50
30021;BME280;16861;52.294;7.760;2023-04-22T09:53:11;98986.13;;;21.96;46.68
30021;BME280;16861;52.294;7.760;2023-04-22T09:55:41;98974.66;;;22.03;47.07
30021;BME280;16861;52.294;7.760;2023-04-22T09:58:10;98963.00;;;22.10;45.71
30021;BME280;16861;52.294;7.760;2023-04-22T10:00:49;98974.84;;;22.16;44.88
30021;BME280;16861;52.294;7.760;2023-04-22T10:03:16;98972.94;;;22.25;46.14
30021;BME280;16861;52.294;7.760;2023-04-22T10:05:46;98963.53;;;22.29;46.45
30021;BME280;16861;52.294;7.760;2023-04-22T10:08:14;98962.41;;;22.38;45.75
30021;BME280;16861;52.294;7.760;2023-04-22T10:10:42;98956.13;;;22.46;45.47
30021;BME280;16861;52.294;7.760;2023-04-22T10:13:08;98955.03;;;22.56;45.75
30021;BME280;16861;52.294;7.760;2023-04-22T10:15:39;98951.22;;;22.65;45.66
30021;BME280;16861;52.294;7.760;2023-04-22T10:18:09;98947.44;;;22.74;45.58
30021;BME280;16861;52.294;7.760;2023-04-22T10:20:38;98938.28;;;22.84;44.64
30021;BME280;16861;52.294;7.760;2023-04-22T10:23:14;98938.72;;;22.87;43.81
30021;BME280;16861;52.294;7.760;2023-04-22T10:25:46;98939.63;;;22.95;44.48
30021;BME280;16861;52.294;7.760;2023-04-22T10:28:15;98937.22;;;23.00;44.71
30021;BME280;16861;52.294;7.760;2023-04-22T10:30:42;98928.59;;;23.04;44.58
30021;BME280;16861;52.294;7.760;2023-04-22T10:41:15;98921.09;;;23.37;45.52
30021;BME280;16861;52.294;7.760;2023-04-22T10:43:44;98932.59;;;23.52;45.89
30021;BME280;16861;52.294;7.760;2023-04-22T10:49:13;98938.47;;;23.85;43.94
30021;BME280;16861;52.294;7.760;2023-04-22T10:51:44;98928.84;;;23.97;44.60
30021;BME280;16861;52.294;7.760;2023-04-22T10:59:32;98922.75;;;24.52;45.16
30021;BME280;16861;52.294;7.760;2023-04-22T11:02:04;98917.50;;;24.79;43.68
30021;BME280;16861;52.294;7.760;2023-04-22T11:04:31;98911.84;;;25.16;45.56
30021;BME280;16861;52.294;7.760;2023-04-22T11:09:44;98913.94;;;26.09;44.85
30021;BME280;16861;52.294;7.760;2023-04-22T11:15:06;98911.09;;;27.15;44.19
30021;BME280;16861;52.294;7.760;2023-04-22T11:17:33;98899.13;;;27.62;43.38
30021;BME280;16861;52.294;7.760;2023-04-22T11:20:01;98904.75;;;28.05;42.29
30021;BME280;16861;52.294;7.760;2023-04-22T11:22:28;98910.81;;;28.44;40.83
30021;BME280;16861;52.294;7.760;2023-04-22T11:25:00;98902.00;;;28.68;39.65
30021;BME280;16861;52.294;7.760;2023-04-22T11:27:26;98903.34;;;28.77;39.46
30021;BME280;16861;52.294;7.760;2023-04-22T11:32:28;98888.13;;;28.95;39.87
30021;BME280;16861;52.294;7.760;2023-04-22T11:34:55;98893.63;;;29.19;39.74
30021;BME280;16861;52.294;7.760;2023-04-22T11:37:24;98884.38;;;29.50;38.73
30021;BME280;16861;52.294;7.760;2023-04-22T11:39:50;98889.25;;;29.84;38.14
30021;BME280;16861;52.294;7.760;2023-04-22T11:42:38;98880.59;;;30.23;38.73
30021;BME280;16861;52.294;7.760;2023-04-22T11:45:05;98872.03;;;30.55;38.23
30021;BME280;16861;52.294;7.760;2023-04-22T11:47:34;98873.44;;;30.87;36.31
30021;BME280;16861;52.294;7.760;2023-04-22T11:50:07;98869.88;;;31.16;35.39
30021;BME280;16861;52.294;7.760;2023-04-22T11:55:23;98868.19;;;31.44;33.21
30021;BME280;16861;52.294;7.760;2023-04-22T11:58:05;98862.84;;;31.49;34.61
30021;BME280;16861;52.294;7.760;2023-04-22T12:00:37;98864.31;;;31.57;34.14
30021;BME280;16861;52.294;7.760;2023-04-22T12:03:20;98855.16;;;31.63;32.50
30021;BME280;16861;52.294;7.760;2023-04-22T12:06:03;98854.81;;;31.59;33.40
30021;BME280;16861;52.294;7.760;2023-04-22T12:08:35;98856.50;;;31.61;31.68
30021;BME280;16861;52.294;7.760;2023-04-22T12:11:06;98845.84;;;31.59;33.99
30021;BME280;16861;52.294;7.760;2023-04-22T12:13:41;98841.97;;;31.55;32.65
30021;BME280;16861;52.294;7.760;2023-04-22T12:21:14;98855.50;;;31.50;30.94
30021;BME280;16861;52.294;7.760;2023-04-22T12:23:46;98846.00;;;31.18;30.32
30021;BME280;16861;52.294;7.760;2023-04-22T12:26:15;98854.03;;;30.78;31.23
30021;BME280;16861;52.294;7.760;2023-04-22T12:28:42;98844.09;;;30.43;31.26
30021;BME280;16861;52.294;7.760;2023-04-22T12:31:10;98854.91;;;30.14;31.83
30021;BME280;16861;52.294;7.760;2023-04-22T12:33:38;98840.28;;;29.91;32.45
30021;BME280;16861;52.294;7.760;2023-04-22T12:36:05;98835.94;;;29.78;32.47
30021;BME280;16861;52.294;7.760;2023-04-22T12:38:32;98833.72;;;29.75;33.71
30021;BME280;16861;52.294;7.760;2023-04-22T12:40:59;98842.44;;;29.77;33.19
30021;BME280;16861;52.294;7.760;2023-04-22T12:43:26;98835.69;;;29.80;32.99
30021;BME280;16861;52.294;7.760;2023-04-22T12:45:52;98831.91;;;29.81;32.84
30021;BME280;16861;52.294;7.760;2023-04-22T12:48:19;98833.81;;;29.80;32.63
30021;BME280;16861;52.294;7.760;2023-04-22T12:50:46;98828.41;;;29.80;32.61
30021;BME280;16861;52.294;7.760;2023-04-22T12:53:13;98832.66;;;29.76;32.10
30021;BME280;16861;52.294;7.760;2023-04-22T12:55:40;98828.28;;;29.63;31.23
30021;BME280;16861;52.294;7.760;2023-04-22T12:58:10;98827.53;;;29.44;31.63
30021;BME280;16861;52.294;7.760;2023-04-22T13:00:37;98825.16;;;29.23;32.63
30021;BME280;16861;52.294;7.760;2023-04-22T13:03:03;98827.28;;;29.09;32.27
30021;BME280;16861;52.294;7.760;2023-04-22T13:05:30;98819.84;;;29.05;32.83
30021;BME280;16861;52.294;7.760;2023-04-22T13:07:57;98810.66;;;29.18;34.80
30021;BME280;16861;52.294;7.760;2023-04-22T13:10:32;98813.66;;;29.52;34.40
30021;BME280;16861;52.294;7.760;2023-04-22T13:12:59;98806.31;;;30.00;34.45
30021;BME280;16861;52.294;7.760;2023-04-22T13:15:43;98793.47;;;30.66;34.68
30021;BME280;16861;52.294;7.760;2023-04-22T13:18:10;98789.31;;;31.27;33.34
30021;BME280;16861;52.294;7.760;2023-04-22T13:20:37;98801.53;;;31.81;32.63
30021;BME280;16861;52.294;7.760;2023-04-22T13:23:03;98800.22;;;32.28;31.78
30021;BME280;16861;52.294;7.760;2023-04-22T13:25:30;98794.63;;;32.62;29.86
30021;BME280;16861;52.294;7.760;2023-04-22T13:27:57;98800.47;;;32.76;29.55
30021;BME280;16861;52.294;7.760;2023-04-22T13:30:24;98801.59;;;32.81;29.96
30021;BME280;16861;52.294;7.760;2023-04-22T13:32:50;98785.19;;;32.75;29.23
30021;BME280;16861;52.294;7.760;2023-04-22T13:35:17;98779.34;;;32.61;28.11
30021;BME280;16861;52.294;7.760;2023-04-22T13:37:44;98783.13;;;32.33;28.20